createdAt,value
2022-10-19T00:02:58.285Z,13.50
2022-10-19T00:08:01.753Z,13.60
2022-10-19T00:13:03.554Z,13.60
2022-10-19T00:18:05.305Z,13.70
2022-10-19T00:23:07.161Z,13.80
2022-10-19T00:28:08.971Z,13.80
2022-10-19T00:33:10.762Z,13.80
2022-10-19T00:38:12.525Z,13.90
2022-10-19T00:43:23.335Z,13.90
2022-10-19T00:48:31.771Z,13.80
2022-10-19T00:53:33.756Z,13.70
2022-10-19T00:58:36.039Z,13.70
2022-10-19T01:03:38.343Z,13.70
2022-10-19T01:08:40.363Z,13.70
2022-10-19T01:13:46.694Z,13.70
2022-10-19T01:19:09.329Z,13.50
2022-10-19T01:24:23.560Z,13.40
2022-10-19T01:29:40.496Z,13.50
2022-10-19T01:34:52.799Z,13.50
2022-10-19T01:40:06.734Z,13.40
2022-10-19T01:45:21.181Z,13.40
2022-10-19T01:50:38.526Z,13.30
2022-10-19T01:55:43.376Z,13.30
2022-10-19T02:00:48.470Z,13.20
2022-10-19T02:05:51.952Z,13.10
2022-10-19T02:10:55.247Z,13.30
2022-10-19T02:16:01.326Z,13.20
2022-10-19T02:21:04.394Z,13.00
2022-10-19T02:26:06.723Z,12.80
2022-10-19T02:31:09.068Z,12.90
2022-10-19T02:36:10.942Z,12.90
2022-10-19T02:41:21.939Z,12.90
2022-10-19T02:46:30.823Z,12.70
2022-10-19T02:51:32.588Z,12.50
2022-10-19T02:56:35.652Z,12.50
2022-10-19T03:01:37.414Z,12.50
2022-10-19T03:06:39.162Z,12.60
2022-10-19T03:11:40.875Z,12.60
2022-10-19T03:16:42.601Z,12.70
2022-10-19T03:21:44.362Z,12.70
2022-10-19T03:26:46.112Z,12.80
2022-10-19T03:31:48.186Z,12.80
2022-10-19T03:36:50.057Z,12.90
2022-10-19T03:41:51.818Z,13.10
2022-10-19T03:46:53.570Z,13.10
2022-10-19T03:51:55.322Z,13.00
2022-10-19T03:56:57.051Z,12.90
2022-10-19T04:01:58.802Z,12.80
2022-10-19T04:07:01.732Z,12.90
2022-10-19T04:12:03.651Z,13.10
2022-10-19T04:17:05.475Z,13.10
2022-10-19T04:22:07.220Z,13.00
2022-10-19T04:27:09.304Z,13.10
2022-10-19T04:32:11.070Z,13.10
2022-10-19T04:37:12.822Z,13.00
2022-10-19T04:42:14.579Z,13.00
2022-10-19T04:47:16.347Z,13.10
2022-10-19T04:52:18.111Z,13.10
2022-10-19T04:57:19.846Z,13.20
2022-10-19T05:02:21.579Z,13.30
2022-10-19T05:07:23.433Z,13.30
2022-10-19T05:12:25.180Z,13.30
2022-10-19T05:17:31.480Z,13.30
2022-10-19T05:22:33.469Z,13.30
2022-10-19T05:27:35.464Z,13.30
2022-10-19T05:32:37.717Z,13.30
2022-10-19T05:37:39.519Z,13.30
2022-10-19T05:42:41.263Z,13.40
2022-10-19T05:47:43.015Z,13.30
2022-10-19T05:52:44.771Z,13.30
2022-10-19T05:57:46.510Z,13.20
2022-10-19T06:02:48.240Z,13.10
2022-10-19T06:07:49.996Z,13.30
2022-10-19T06:12:51.795Z,13.30
2022-10-19T06:17:53.541Z,13.20
2022-10-19T06:22:55.371Z,13.20
2022-10-19T06:27:57.514Z,13.20
2022-10-19T06:33:00.282Z,13.30
2022-10-19T06:38:02.155Z,13.30
2022-10-19T06:43:03.913Z,13.30
2022-10-19T06:48:07.730Z,13.20
2022-10-19T06:53:09.959Z,13.20
2022-10-19T06:58:11.671Z,13.20
2022-10-19T07:03:13.409Z,13.20
2022-10-19T07:08:15.208Z,13.40
2022-10-19T07:13:16.989Z,13.40
2022-10-19T07:18:18.794Z,13.50
2022-10-19T07:23:20.550Z,13.70
2022-10-19T07:28:22.358Z,13.70
2022-10-19T07:33:24.194Z,13.70
2022-10-19T07:38:25.979Z,13.60
2022-10-19T07:43:27.717Z,13.60
2022-10-19T07:48:29.986Z,13.60
2022-10-19T07:53:32.295Z,13.50
2022-10-19T07:58:35.097Z,13.70
2022-10-19T08:08:59.127Z,13.60
2022-10-19T08:14:03.105Z,13.80
2022-10-19T08:19:09.824Z,13.60
2022-10-19T08:24:14.043Z,13.90
2022-10-19T08:29:16.861Z,14.40
2022-10-19T08:34:18.733Z,14.40
2022-10-19T08:39:20.494Z,14.40
2022-10-19T08:44:25.254Z,14.40
2022-10-19T08:49:30.139Z,14.10
2022-10-19T09:00:16.279Z,14.40
2022-10-19T09:05:30.686Z,14.40
2022-10-19T09:10:38.818Z,14.70
2022-10-19T09:15:44.292Z,14.90
2022-10-19T09:21:17.089Z,15.10
2022-10-19T09:26:23.056Z,15.00
2022-10-19T09:31:45.145Z,14.70
2022-10-19T09:36:57.346Z,14.80
2022-10-19T09:42:19.665Z,14.80
2022-10-19T09:47:39.772Z,14.80
2022-10-19T09:52:43.214Z,14.60
2022-10-19T09:57:50.623Z,14.80
2022-10-19T10:02:54.627Z,14.70
2022-10-19T10:07:56.548Z,14.70
2022-10-19T10:13:00.274Z,14.90
2022-10-19T10:18:02.889Z,15.40
2022-10-19T10:23:06.475Z,15.70
2022-10-19T10:28:28.939Z,15.80
2022-10-19T10:33:50.423Z,15.90
2022-10-19T10:38:55.628Z,16.10
2022-10-19T10:44:08.902Z,16.20
2022-10-19T10:49:26.747Z,16.40
2022-10-19T10:54:33.538Z,16.30
2022-10-19T10:59:44.757Z,16.40
2022-10-19T11:04:52.577Z,17.30
2022-10-19T11:09:59.670Z,17.20
2022-10-19T11:15:04.438Z,17.00
2022-10-19T11:20:11.020Z,16.80
2022-10-19T11:25:41.454Z,16.60
2022-10-19T11:31:16.549Z,16.50
2022-10-19T11:36:47.164Z,16.30
2022-10-19T11:42:00.250Z,16.50
2022-10-19T11:47:10.614Z,16.80
2022-10-19T11:52:21.358Z,16.80
2022-10-19T11:57:31.172Z,16.90
2022-10-19T12:03:18.388Z,16.80
2022-10-19T12:08:46.415Z,17.20
2022-10-19T12:13:52.672Z,17.50
2022-10-19T12:19:00.374Z,17.40
2022-10-19T12:24:06.494Z,17.30
2022-10-19T12:29:16.199Z,17.30
2022-10-19T12:34:36.207Z,17.30
2022-10-19T12:40:08.534Z,17.30
2022-10-19T12:45:31.249Z,16.70
2022-10-19T12:50:48.201Z,17.10
2022-10-19T12:56:03.738Z,17.40
2022-10-19T13:01:07.359Z,17.40
2022-10-19T13:06:34.074Z,17.60
2022-10-19T13:11:38.245Z,17.40
2022-10-19T13:16:55.536Z,17.30
2022-10-19T13:22:20.273Z,17.40
2022-10-19T13:27:26.658Z,17.00
2022-10-19T13:32:45.733Z,17.20
2022-10-19T13:38:10.337Z,17.90
2022-10-19T13:43:34.334Z,19.40
2022-10-19T13:49:06.192Z,19.10
2022-10-19T13:54:24.154Z,19.50
2022-10-19T13:59:44.243Z,19.20
2022-10-19T14:05:27.673Z,19.10
2022-10-19T14:10:33.070Z,19.80
2022-10-19T14:15:55.075Z,19.30
2022-10-19T14:20:58.215Z,18.60
2022-10-19T14:26:05.171Z,18.00
2022-10-19T14:31:09.934Z,17.70
2022-10-19T14:36:18.665Z,17.60
2022-10-19T14:41:32.570Z,17.40
2022-10-19T14:46:34.743Z,17.30
2022-10-19T14:51:47.156Z,17.20
2022-10-19T14:56:53.845Z,17.10
2022-10-19T15:01:58.664Z,17.00
2022-10-19T15:07:04.904Z,17.10
2022-10-19T15:12:10.241Z,17.00
2022-10-19T15:17:23.336Z,16.80
2022-10-19T15:22:31.227Z,16.90
2022-10-19T15:27:38.506Z,16.60
2022-10-19T15:32:40.266Z,16.60
2022-10-19T15:37:44.622Z,16.60
2022-10-19T15:42:48.724Z,16.50
2022-10-19T15:48:10.435Z,16.30
2022-10-19T15:53:12.247Z,16.00
2022-10-19T15:58:14.486Z,15.80
2022-10-19T16:03:17.276Z,15.50
2022-10-19T16:08:19.034Z,15.40
2022-10-19T16:13:20.799Z,15.20
2022-10-19T16:18:22.529Z,15.00
2022-10-19T16:23:24.586Z,14.70
2022-10-19T16:28:26.344Z,14.70
2022-10-19T16:33:28.516Z,14.60
2022-10-19T16:38:30.251Z,14.40
2022-10-19T16:43:32.028Z,14.50
2022-10-19T16:48:34.187Z,14.20
2022-10-19T16:53:37.413Z,14.20
2022-10-19T16:58:40.287Z,14.10
2022-10-19T17:03:46.335Z,14.00
2022-10-19T17:14:12.730Z,13.80
2022-10-19T17:19:14.394Z,13.80
2022-10-19T17:24:21.697Z,13.80
2022-10-19T17:29:23.931Z,13.70
2022-10-19T17:34:25.737Z,13.70
2022-10-19T17:39:29.943Z,13.50
2022-10-19T17:44:32.048Z,13.50
2022-10-19T17:49:33.995Z,13.30
2022-10-19T17:54:43.637Z,13.30
2022-10-19T17:59:57.535Z,13.10
2022-10-19T18:04:59.287Z,13.10
2022-10-19T18:10:01.026Z,12.80
2022-10-19T18:15:02.914Z,12.80
2022-10-19T18:20:05.131Z,12.80
2022-10-19T18:25:07.316Z,12.80
2022-10-19T18:30:09.953Z,12.70
2022-10-19T18:35:11.871Z,12.70
2022-10-19T18:40:13.609Z,12.60
2022-10-19T18:45:16.795Z,12.50
2022-10-19T18:50:18.626Z,12.50
2022-10-19T18:55:20.418Z,12.40
2022-10-19T19:00:22.153Z,12.30
2022-10-19T19:05:24.124Z,12.20
2022-10-19T19:10:26.285Z,12.20
2022-10-19T19:15:28.027Z,12.10
2022-10-19T19:20:29.933Z,12.10
2022-10-19T19:25:31.719Z,12.00
2022-10-19T19:30:33.656Z,12.00
2022-10-19T19:35:41.523Z,11.90
2022-10-19T19:40:45.619Z,11.90
2022-10-19T19:45:57.095Z,11.80
2022-10-19T19:50:58.831Z,11.80
2022-10-19T19:56:00.589Z,11.70
2022-10-19T20:01:13.774Z,11.70
2022-10-19T20:06:20.736Z,11.60
2022-10-19T20:11:27.028Z,11.60
2022-10-19T20:16:31.984Z,11.70
2022-10-19T20:21:33.915Z,11.60
2022-10-19T20:26:35.833Z,11.50
2022-10-19T20:31:41.270Z,11.50
2022-10-19T20:36:43.256Z,11.40
2022-10-19T20:41:44.980Z,11.40
2022-10-19T20:46:49.082Z,11.30
2022-10-19T20:51:53.591Z,11.10
2022-10-19T20:56:55.275Z,11.10
2022-10-19T21:01:57.805Z,10.90
2022-10-19T21:06:59.996Z,10.80
2022-10-19T21:12:01.772Z,10.80
2022-10-19T21:17:03.562Z,10.80
2022-10-19T21:22:06.242Z,10.80
2022-10-19T21:27:09.128Z,10.70
2022-10-19T21:32:11.060Z,10.70
2022-10-19T21:37:12.816Z,10.70
2022-10-19T21:42:14.599Z,10.70
2022-10-19T21:47:16.349Z,10.40
2022-10-19T21:52:18.103Z,10.30
2022-10-19T21:57:19.838Z,10.20
2022-10-19T22:02:21.578Z,10.00
2022-10-19T22:07:23.346Z,9.90
2022-10-19T22:12:25.111Z,9.90
2022-10-19T22:17:26.934Z,9.90
2022-10-19T22:22:28.710Z,9.80
2022-10-19T22:27:30.485Z,9.60
2022-10-19T22:32:32.237Z,9.50
2022-10-19T22:37:34.653Z,9.40
2022-10-19T22:42:36.757Z,9.20
2022-10-19T22:47:38.816Z,9.30
2022-10-19T22:52:40.585Z,9.40
2022-10-19T22:57:42.491Z,9.50
2022-10-19T23:02:44.375Z,9.50
2022-10-19T23:07:46.093Z,9.40
2022-10-19T23:12:52.615Z,9.30
2022-10-19T23:17:54.534Z,9.30
2022-10-19T23:22:56.300Z,9.30
2022-10-19T23:27:58.040Z,9.20
2022-10-19T23:32:59.743Z,9.20
2022-10-19T23:38:01.471Z,9.30
2022-10-19T23:43:03.240Z,9.20
2022-10-19T23:48:04.995Z,9.20
2022-10-19T23:53:06.762Z,9.20
2022-10-19T23:58:08.504Z,9.30
